sensor_id;sensor_type;location;lat;lon;timestamp;P1;durP1;ratioP1;P2;durP2;ratioP2
5730;SDS011;2890;51.950;7.668;2024-01-10T00:02:21;5.27;;;4.77;;
5730;SDS011;2890;51.950;7.668;2024-01-10T00:04:47;5.10;;;4.60;;
5730;SDS011;2890;51.950;7.668;2024-01-10T00:07:14;6.23;;;5.03;;
5730;SDS011;2890;51.950;7.668;2024-01-10T00:09:41;5.90;;;4.60;;
5730;SDS011;2890;51.950;7.668;2024-01-10T00:12:08;6.47;;;4.80;;
5730;SDS011;2890;51.950;7.668;2024-01-10T00:14:34;8.53;;;5.00;;
5730;SDS011;2890;51.950;7.668;2024-01-10T00:17:01;5.73;;;4.60;;
5730;SDS011;2890;51.950;7.668;2024-01-10T00:19:27;6.77;;;4.47;;
5730;SDS011;2890;51.950;7.668;2024-01-10T00:21:54;5.80;;;4.50;;
5730;SDS011;2890;51.950;7.668;2024-01-10T00:24:21;7.20;;;4.90;;
5730;SDS011;2890;51.950;7.668;2024-01-10T00:26:48;6.03;;;4.53;;
5730;SDS011;2890;51.950;7.668;2024-01-10T00:29:15;6.20;;;4.57;;
5730;SDS011;2890;51.950;7.668;2024-01-10T00:31:41;5.93;;;4.33;;
5730;SDS011;2890;51.950;7.668;2024-01-10T00:34:08;7.80;;;5.20;;
5730;SDS011;2890;51.950;7.668;2024-01-10T00:36:34;5.00;;;4.50;;
5730;SDS011;2890;51.950;7.668;2024-01-10T00:39:01;14.60;;;5.40;;
5730;SDS011;2890;51.950;7.668;2024-01-10T00:41:27;7.90;;;5.30;;
5730;SDS011;2890;51.950;7.668;2024-01-10T00:43:55;7.43;;;4.77;;
5730;SDS011;2890;51.950;7.668;2024-01-10T00:46:21;6.37;;;4.70;;
5730;SDS011;2890;51.950;7.668;2024-01-10T00:48:48;7.37;;;4.87;;
5730;SDS011;2890;51.950;7.668;2024-01-10T00:51:14;6.00;;;5.00;;
5730;SDS011;2890;51.950;7.668;2024-01-10T00:53:41;6.90;;;5.80;;
5730;SDS011;2890;51.950;7.668;2024-01-10T00:56:07;7.97;;;5.23;;
5730;SDS011;2890;51.950;7.668;2024-01-10T00:58:34;5.13;;;4.10;;
5730;SDS011;2890;51.950;7.668;2024-01-10T01:01:01;7.73;;;4.90;;
5730;SDS011;2890;51.950;7.668;2024-01-10T01:03:28;5.70;;;4.80;;
5730;SDS011;2890;51.950;7.668;2024-01-10T01:05:54;7.40;;;5.23;;
5730;SDS011;2890;51.950;7.668;2024-01-10T01:08:20;9.90;;;5.20;;
5730;SDS011;2890;51.950;7.668;2024-01-10T01:10:47;7.93;;;4.73;;
5730;SDS011;2890;51.950;7.668;2024-01-10T01:13:13;7.50;;;5.50;;
5730;SDS011;2890;51.950;7.668;2024-01-10T01:15:40;7.00;;;4.40;;
5730;SDS011;2890;51.950;7.668;2024-01-10T01:18:07;6.90;;;4.60;;
5730;SDS011;2890;51.950;7.668;2024-01-10T01:20:35;5.97;;;4.90;;
5730;SDS011;2890;51.950;7.668;2024-01-10T01:23:01;6.50;;;4.90;;
5730;SDS011;2890;51.950;7.668;2024-01-10T01:25:28;6.47;;;4.90;;
5730;SDS011;2890;51.950;7.668;2024-01-10T01:27:54;5.20;;;4.50;;
5730;SDS011;2890;51.950;7.668;2024-01-10T01:30:20;7.47;;;5.13;;
5730;SDS011;2890;51.950;7.668;2024-01-10T01:32:47;6.87;;;5.70;;
5730;SDS011;2890;51.950;7.668;2024-01-10T01:35:15;8.67;;;6.20;;
5730;SDS011;2890;51.950;7.668;2024-01-10T01:37:46;6.67;;;5.03;;
5730;SDS011;2890;51.950;7.668;2024-01-10T01:40:13;11.33;;;5.50;;
5730;SDS011;2890;51.950;7.668;2024-01-10T01:42:39;6.77;;;4.97;;
5730;SDS011;2890;51.950;7.668;2024-01-10T01:45:06;6.50;;;4.40;;
5730;SDS011;2890;51.950;7.668;2024-01-10T01:47:33;7.37;;;5.37;;
5730;SDS011;2890;51.950;7.668;2024-01-10T01:49:59;6.43;;;4.97;;
5730;SDS011;2890;51.950;7.668;2024-01-10T01:52:27;6.97;;;5.10;;
5730;SDS011;2890;51.950;7.668;2024-01-10T01:54:56;6.77;;;4.80;;
5730;SDS011;2890;51.950;7.668;2024-01-10T01:57:22;7.20;;;4.83;;
5730;SDS011;2890;51.950;7.668;2024-01-10T01:59:49;7.83;;;5.20;;
5730;SDS011;2890;51.950;7.668;2024-01-10T02:02:16;7.07;;;4.87;;
5730;SDS011;2890;51.950;7.668;2024-01-10T02:04:42;8.07;;;6.00;;
5730;SDS011;2890;51.950;7.668;2024-01-10T02:07:10;6.43;;;5.40;;
5730;SDS011;2890;51.950;7.668;2024-01-10T02:09:38;5.90;;;4.83;;
5730;SDS011;2890;51.950;7.668;2024-01-10T02:12:05;5.40;;;4.53;;
5730;SDS011;2890;51.950;7.668;2024-01-10T02:14:32;14.13;;;5.10;;
5730;SDS011;2890;51.950;7.668;2024-01-10T02:16:59;7.37;;;5.33;;
5730;SDS011;2890;51.950;7.668;2024-01-10T02:19:25;8.00;;;6.03;;
5730;SDS011;2890;51.950;7.668;2024-01-10T02:21:54;7.70;;;5.33;;
5730;SDS011;2890;51.950;7.668;2024-01-10T02:24:21;8.10;;;5.10;;
5730;SDS011;2890;51.950;7.668;2024-01-10T02:26:48;6.53;;;4.83;;
5730;SDS011;2890;51.950;7.668;2024-01-10T02:29:15;7.57;;;5.57;;
5730;SDS011;2890;51.950;7.668;2024-01-10T02:31:42;9.30;;;5.40;;
5730;SDS011;2890;51.950;7.668;2024-01-10T02:34:09;6.80;;;4.90;;
5730;SDS011;2890;51.950;7.668;2024-01-10T02:36:35;5.80;;;4.93;;
5730;SDS011;2890;51.950;7.668;2024-01-10T02:39:02;9.70;;;5.67;;
5730;SDS011;2890;51.950;7.668;2024-01-10T02:41:28;11.50;;;5.80;;
5730;SDS011;2890;51.950;7.668;2024-01-10T02:43:56;7.53;;;5.40;;
5730;SDS011;2890;51.950;7.668;2024-01-10T02:46:24;7.47;;;5.70;;
5730;SDS011;2890;51.950;7.668;2024-01-10T02:48:52;10.60;;;5.53;;
5730;SDS011;2890;51.950;7.668;2024-01-10T02:51:19;9.90;;;5.30;;
5730;SDS011;2890;51.950;7.668;2024-01-10T02:53:46;6.03;;;5.00;;
5730;SDS011;2890;51.950;7.668;2024-01-10T02:56:12;7.83;;;5.30;;
5730;SDS011;2890;51.950;7.668;2024-01-10T02:58:39;7.60;;;5.13;;
5730;SDS011;2890;51.950;7.668;2024-01-10T03:01:07;10.00;;;6.00;;
5730;SDS011;2890;51.950;7.668;2024-01-10T03:03:34;8.07;;;5.57;;
5730;SDS011;2890;51.950;7.668;2024-01-10T03:06:00;6.00;;;4.70;;
5730;SDS011;2890;51.950;7.668;2024-01-10T03:08:27;7.33;;;5.60;;
5730;SDS011;2890;51.950;7.668;2024-01-10T03:10:53;5.67;;;5.17;;
5730;SDS011;2890;51.950;7.668;2024-01-10T03:13:20;8.90;;;5.40;;
5730;SDS011;2890;51.950;7.668;2024-01-10T03:15:46;9.43;;;6.03;;
5730;SDS011;2890;51.950;7.668;2024-01-10T03:18:14;7.00;;;4.90;;
5730;SDS011;2890;51.950;7.668;2024-01-10T03:20:40;6.70;;;4.57;;
5730;SDS011;2890;51.950;7.668;2024-01-10T03:23:07;6.67;;;5.00;;
5730;SDS011;2890;51.950;7.668;2024-01-10T03:25:33;7.70;;;5.30;;
5730;SDS011;2890;51.950;7.668;2024-01-10T03:27:59;6.30;;;5.50;;
5730;SDS011;2890;51.950;7.668;2024-01-10T03:30:26;7.13;;;5.30;;
5730;SDS011;2890;51.950;7.668;2024-01-10T03:32:52;8.63;;;4.70;;
5730;SDS011;2890;51.950;7.668;2024-01-10T03:35:20;7.67;;;5.43;;
5730;SDS011;2890;51.950;7.668;2024-01-10T03:37:46;8.07;;;5.70;;
5730;SDS011;2890;51.950;7.668;2024-01-10T03:40:13;8.47;;;5.67;;
5730;SDS011;2890;51.950;7.668;2024-01-10T03:42:39;8.47;;;5.13;;
5730;SDS011;2890;51.950;7.668;2024-01-10T03:45:06;8.03;;;4.87;;
5730;SDS011;2890;51.950;7.668;2024-01-10T03:47:32;7.17;;;5.67;;
5730;SDS011;2890;51.950;7.668;2024-01-10T03:49:59;12.37;;;5.60;;
5730;SDS011;2890;51.950;7.668;2024-01-10T03:52:26;11.47;;;6.40;;
5730;SDS011;2890;51.950;7.668;2024-01-10T03:54:53;7.63;;;6.13;;
5730;SDS011;2890;51.950;7.668;2024-01-10T03:57:20;8.13;;;6.10;;
5730;SDS011;2890;51.950;7.668;2024-01-10T03:59:46;8.77;;;5.63;;
5730;SDS011;2890;51.950;7.668;2024-01-10T04:02:12;8.00;;;5.23;;
5730;SDS011;2890;51.950;7.668;2024-01-10T04:04:39;8.47;;;6.07;;
5730;SDS011;2890;51.950;7.668;2024-01-10T04:07:05;10.27;;;7.03;;
5730;SDS011;2890;51.950;7.668;2024-01-10T04:09:33;9.30;;;5.70;;
5730;SDS011;2890;51.950;7.668;2024-01-10T04:12:00;7.70;;;6.20;;
5730;SDS011;2890;51.950;7.668;2024-01-10T04:14:26;7.43;;;6.07;;
5730;SDS011;2890;51.950;7.668;2024-01-10T04:16:53;8.93;;;6.40;;
5730;SDS011;2890;51.950;7.668;2024-01-10T04:19:19;7.80;;;6.17;;
5730;SDS011;2890;51.950;7.668;2024-01-10T04:21:46;8.03;;;5.87;;
5730;SDS011;2890;51.950;7.668;2024-01-10T04:24:12;10.90;;;6.50;;
5730;SDS011;2890;51.950;7.668;2024-01-10T04:26:40;7.80;;;5.77;;
5730;SDS011;2890;51.950;7.668;2024-01-10T04:29:06;9.83;;;6.20;;
5730;SDS011;2890;51.950;7.668;2024-01-10T04:31:33;9.37;;;6.63;;
5730;SDS011;2890;51.950;7.668;2024-01-10T04:34:00;9.90;;;6.47;;
5730;SDS011;2890;51.950;7.668;2024-01-10T04:36:27;9.33;;;6.43;;
5730;SDS011;2890;51.950;7.668;2024-01-10T04:38:53;14.27;;;7.30;;
5730;SDS011;2890;51.950;7.668;2024-01-10T04:41:19;9.70;;;6.50;;
5730;SDS011;2890;51.950;7.668;2024-01-10T04:43:48;12.07;;;6.27;;
5730;SDS011;2890;51.950;7.668;2024-01-10T04:46:14;10.53;;;5.80;;
5730;SDS011;2890;51.950;7.668;2024-01-10T04:48:41;7.90;;;5.83;;
5730;SDS011;2890;51.950;7.668;2024-01-10T04:51:07;20.73;;;6.67;;
5730;SDS011;2890;51.950;7.668;2024-01-10T04:53:34;10.80;;;6.13;;
5730;SDS011;2890;51.950;7.668;2024-01-10T04:56:01;13.03;;;6.70;;
5730;SDS011;2890;51.950;7.668;2024-01-10T04:58:27;13.00;;;8.10;;
5730;SDS011;2890;51.950;7.668;2024-01-10T05:00:56;7.87;;;5.90;;
5730;SDS011;2890;51.950;7.668;2024-01-10T05:03:22;13.43;;;7.07;;
5730;SDS011;2890;51.950;7.668;2024-01-10T05:05:48;12.67;;;6.90;;
5730;SDS011;2890;51.950;7.668;2024-01-10T05:08:15;9.00;;;6.17;;
5730;SDS011;2890;51.950;7.668;2024-01-10T05:10:45;10.13;;;6.40;;
5730;SDS011;2890;51.950;7.668;2024-01-10T05:13:11;7.60;;;6.20;;
5730;SDS011;2890;51.950;7.668;2024-01-10T05:15:38;11.90;;;6.90;;
5730;SDS011;2890;51.950;7.668;2024-01-10T05:18:06;10.03;;;6.50;;
5730;SDS011;2890;51.950;7.668;2024-01-10T05:20:32;7.83;;;5.80;;
5730;SDS011;2890;51.950;7.668;2024-01-10T05:22:59;12.97;;;6.73;;
5730;SDS011;2890;51.950;7.668;2024-01-10T05:25:26;11.83;;;6.20;;
5730;SDS011;2890;51.950;7.668;2024-01-10T05:27:54;9.63;;;6.80;;
5730;SDS011;2890;51.950;7.668;2024-01-10T05:30:20;10.50;;;6.40;;
5730;SDS011;2890;51.950;7.668;2024-01-10T05:32:47;8.80;;;5.60;;
5730;SDS011;2890;51.950;7.668;2024-01-10T05:35:15;9.07;;;5.73;;
5730;SDS011;2890;51.950;7.668;2024-01-10T05:37:41;14.43;;;7.20;;
5730;SDS011;2890;51.950;7.668;2024-01-10T05:40:08;8.77;;;6.10;;
5730;SDS011;2890;51.950;7.668;2024-01-10T05:42:35;8.53;;;6.43;;
5730;SDS011;2890;51.950;7.668;2024-01-10T05:45:03;8.60;;;6.00;;
5730;SDS011;2890;51.950;7.668;2024-01-10T05:47:30;9.33;;;5.90;;
5730;SDS011;2890;51.950;7.668;2024-01-10T05:49:57;10.50;;;6.23;;
5730;SDS011;2890;51.950;7.668;2024-01-10T05:52:25;8.73;;;6.97;;
5730;SDS011;2890;51.950;7.668;2024-01-10T05:54:51;6.67;;;5.33;;
5730;SDS011;2890;51.950;7.668;2024-01-10T05:57:18;9.67;;;7.10;;
5730;SDS011;2890;51.950;7.668;2024-01-10T05:59:46;10.20;;;6.17;;
5730;SDS011;2890;51.950;7.668;2024-01-10T06:02:12;13.17;;;6.70;;
5730;SDS011;2890;51.950;7.668;2024-01-10T06:04:41;11.13;;;6.30;;
5730;SDS011;2890;51.950;7.668;2024-01-10T06:07:07;13.60;;;6.57;;
5730;SDS011;2890;51.950;7.668;2024-01-10T06:09:35;9.80;;;6.60;;
5730;SDS011;2890;51.950;7.668;2024-01-10T06:12:02;9.97;;;6.40;;
5730;SDS011;2890;51.950;7.668;2024-01-10T06:14:29;13.00;;;7.60;;
5730;SDS011;2890;51.950;7.668;2024-01-10T06:16:56;15.30;;;6.40;;
5730;SDS011;2890;51.950;7.668;2024-01-10T06:19:24;9.87;;;6.73;;
5730;SDS011;2890;51.950;7.668;2024-01-10T06:21:51;9.63;;;6.67;;
5730;SDS011;2890;51.950;7.668;2024-01-10T06:24:19;11.40;;;7.27;;
5730;SDS011;2890;51.950;7.668;2024-01-10T06:26:46;11.83;;;6.90;;
5730;SDS011;2890;51.950;7.668;2024-01-10T06:29:14;11.47;;;7.63;;
5730;SDS011;2890;51.950;7.668;2024-01-10T06:31:41;9.77;;;7.30;;
5730;SDS011;2890;51.950;7.668;2024-01-10T06:34:07;10.63;;;7.10;;
5730;SDS011;2890;51.950;7.668;2024-01-10T06:36:34;13.47;;;7.30;;
5730;SDS011;2890;51.950;7.668;2024-01-10T06:39:01;11.50;;;7.67;;
5730;SDS011;2890;51.950;7.668;2024-01-10T06:41:27;12.10;;;7.80;;
5730;SDS011;2890;51.950;7.668;2024-01-10T06:43:55;16.70;;;9.53;;
5730;SDS011;2890;51.950;7.668;2024-01-10T06:46:21;11.40;;;8.30;;
5730;SDS011;2890;51.950;7.668;2024-01-10T06:48:48;11.40;;;7.70;;
5730;SDS011;2890;51.950;7.668;2024-01-10T06:51:14;12.53;;;7.87;;
5730;SDS011;2890;51.950;7.668;2024-01-10T06:53:41;18.83;;;11.57;;
5730;SDS011;2890;51.950;7.668;2024-01-10T06:56:07;16.60;;;9.07;;
5730;SDS011;2890;51.950;7.668;2024-01-10T06:58:35;13.80;;;8.00;;
5730;SDS011;2890;51.950;7.668;2024-01-10T07:01:03;14.20;;;8.03;;
5730;SDS011;2890;51.950;7.668;2024-01-10T07:03:30;12.63;;;7.40;;
5730;SDS011;2890;51.950;7.668;2024-01-10T07:05:57;11.70;;;7.87;;
5730;SDS011;2890;51.950;7.668;2024-01-10T07:08:23;14.43;;;7.60;;
5730;SDS011;2890;51.950;7.668;2024-01-10T07:10:51;13.37;;;7.67;;
5730;SDS011;2890;51.950;7.668;2024-01-10T07:13:17;14.30;;;8.07;;
5730;SDS011;2890;51.950;7.668;2024-01-10T07:15:43;10.87;;;7.43;;
5730;SDS011;2890;51.950;7.668;2024-01-10T07:18:11;11.70;;;7.73;;
5730;SDS011;2890;51.950;7.668;2024-01-10T07:20:38;15.30;;;8.57;;
5730;SDS011;2890;51.950;7.668;2024-01-10T07:23:04;17.50;;;8.23;;
5730;SDS011;2890;51.950;7.668;2024-01-10T07:25:31;12.87;;;7.67;;
5730;SDS011;2890;51.950;7.668;2024-01-10T07:27:58;13.37;;;8.23;;
5730;SDS011;2890;51.950;7.668;2024-01-10T07:30:26;17.20;;;9.03;;
5730;SDS011;2890;51.950;7.668;2024-01-10T07:32:52;12.17;;;8.33;;
5730;SDS011;2890;51.950;7.668;2024-01-10T07:35:20;12.47;;;8.47;;
5730;SDS011;2890;51.950;7.668;2024-01-10T07:37:47;11.90;;;8.17;;
5730;SDS011;2890;51.950;7.668;2024-01-10T07:40:13;15.40;;;8.90;;
5730;SDS011;2890;51.950;7.668;2024-01-10T07:42:39;17.87;;;8.80;;
5730;SDS011;2890;51.950;7.668;2024-01-10T07:45:06;19.47;;;8.73;;
5730;SDS011;2890;51.950;7.668;2024-01-10T07:47:34;15.00;;;8.83;;
5730;SDS011;2890;51.950;7.668;2024-01-10T07:50:02;14.70;;;9.23;;
5730;SDS011;2890;51.950;7.668;2024-01-10T07:52:31;16.83;;;9.97;;
5730;SDS011;2890;51.950;7.668;2024-01-10T07:54:58;20.00;;;8.10;;
5730;SDS011;2890;51.950;7.668;2024-01-10T07:57:24;14.07;;;8.87;;
5730;SDS011;2890;51.950;7.668;2024-01-10T07:59:52;18.23;;;9.40;;
5730;SDS011;2890;51.950;7.668;2024-01-10T08:02:18;14.70;;;8.90;;
5730;SDS011;2890;51.950;7.668;2024-01-10T08:04:44;19.90;;;9.13;;
5730;SDS011;2890;51.950;7.668;2024-01-10T08:07:11;22.00;;;9.00;;
5730;SDS011;2890;51.950;7.668;2024-01-10T08:09:39;15.67;;;9.20;;
5730;SDS011;2890;51.950;7.668;2024-01-10T08:12:06;18.40;;;9.73;;
5730;SDS011;2890;51.950;7.668;2024-01-10T08:14:33;14.40;;;9.23;;
5730;SDS011;2890;51.950;7.668;2024-01-10T08:16:59;15.83;;;9.03;;
5730;SDS011;2890;51.950;7.668;2024-01-10T08:19:26;25.87;;;11.30;;
5730;SDS011;2890;51.950;7.668;2024-01-10T08:21:51;19.83;;;9.80;;
5730;SDS011;2890;51.950;7.668;2024-01-10T08:24:18;17.13;;;10.20;;
5730;SDS011;2890;51.950;7.668;2024-01-10T08:26:46;16.13;;;9.53;;
5730;SDS011;2890;51.950;7.668;2024-01-10T08:29:14;20.20;;;9.83;;
5730;SDS011;2890;51.950;7.668;2024-01-10T08:31:41;20.03;;;9.80;;
5730;SDS011;2890;51.950;7.668;2024-01-10T08:34:07;21.20;;;9.90;;
5730;SDS011;2890;51.950;7.668;2024-01-10T08:36:33;19.20;;;10.90;;
5730;SDS011;2890;51.950;7.668;2024-01-10T08:39:00;16.20;;;9.60;;
5730;SDS011;2890;51.950;7.668;2024-01-10T08:41:28;16.07;;;9.57;;
5730;SDS011;2890;51.950;7.668;2024-01-10T08:43:56;17.67;;;10.50;;
5730;SDS011;2890;51.950;7.668;2024-01-10T08:46:23;21.00;;;10.17;;
5730;SDS011;2890;51.950;7.668;2024-01-10T08:48:49;21.50;;;10.83;;
5730;SDS011;2890;51.950;7.668;2024-01-10T08:51:16;15.97;;;10.90;;
5730;SDS011;2890;51.950;7.668;2024-01-10T08:53:42;17.43;;;10.50;;
5730;SDS011;2890;51.950;7.668;2024-01-10T08:56:09;15.40;;;9.80;;
5730;SDS011;2890;51.950;7.668;2024-01-10T08:58:36;15.40;;;10.60;;
5730;SDS011;2890;51.950;7.668;2024-01-10T09:01:04;17.23;;;10.87;;
5730;SDS011;2890;51.950;7.668;2024-01-10T09:03:31;15.17;;;10.83;;
5730;SDS011;2890;51.950;7.668;2024-01-10T09:05:57;17.27;;;11.07;;
5730;SDS011;2890;51.950;7.668;2024-01-10T09:08:24;15.90;;;10.47;;
5730;SDS011;2890;51.950;7.668;2024-01-10T09:10:50;18.67;;;11.87;;
5730;SDS011;2890;51.950;7.668;2024-01-10T09:13:17;18.80;;;11.20;;
5730;SDS011;2890;51.950;7.668;2024-01-10T09:15:43;13.53;;;10.50;;
5730;SDS011;2890;51.950;7.668;2024-01-10T09:18:11;17.47;;;11.27;;
5730;SDS011;2890;51.950;7.668;2024-01-10T09:20:38;17.90;;;11.20;;
5730;SDS011;2890;51.950;7.668;2024-01-10T09:23:04;16.63;;;10.70;;
5730;SDS011;2890;51.950;7.668;2024-01-10T09:25:30;18.93;;;10.70;;
5730;SDS011;2890;51.950;7.668;2024-01-10T09:27:57;14.43;;;10.67;;
5730;SDS011;2890;51.950;7.668;2024-01-10T09:30:24;19.23;;;11.27;;
5730;SDS011;2890;51.950;7.668;2024-01-10T09:32:50;18.87;;;10.97;;
5730;SDS011;2890;51.950;7.668;2024-01-10T09:35:18;17.13;;;11.20;;
5730;SDS011;2890;51.950;7.668;2024-01-10T09:37:44;22.87;;;11.77;;
5730;SDS011;2890;51.950;7.668;2024-01-10T09:40:11;19.57;;;11.20;;
5730;SDS011;2890;51.950;7.668;2024-01-10T09:42:40;20.80;;;11.30;;
5730;SDS011;2890;51.950;7.668;2024-01-10T09:45:07;17.37;;;11.10;;
5730;SDS011;2890;51.950;7.668;2024-01-10T09:47:34;17.87;;;10.40;;
5730;SDS011;2890;51.950;7.668;2024-01-10T09:50:02;17.80;;;11.07;;
5730;SDS011;2890;51.950;7.668;2024-01-10T09:52:32;15.57;;;10.10;;
5730;SDS011;2890;51.950;7.668;2024-01-10T09:55:00;16.70;;;10.60;;
5730;SDS011;2890;51.950;7.668;2024-01-10T09:57:27;17.63;;;12.40;;
5730;SDS011;2890;51.950;7.668;2024-01-10T09:59:54;14.20;;;10.60;;
5730;SDS011;2890;51.950;7.668;2024-01-10T10:02:20;21.10;;;12.07;;
5730;SDS011;2890;51.950;7.668;2024-01-10T10:04:49;18.80;;;10.90;;
5730;SDS011;2890;51.950;7.668;2024-01-10T10:07:20;19.70;;;11.83;;
5730;SDS011;2890;51.950;7.668;2024-01-10T10:09:48;18.23;;;12.00;;
5730;SDS011;2890;51.950;7.668;2024-01-10T10:12:15;22.90;;;11.93;;
5730;SDS011;2890;51.950;7.668;2024-01-10T10:14:41;16.83;;;11.13;;
5730;SDS011;2890;51.950;7.668;2024-01-10T10:17:14;21.00;;;11.63;;
5730;SDS011;2890;51.950;7.668;2024-01-10T10:19:41;15.50;;;10.80;;
5730;SDS011;2890;51.950;7.668;2024-01-10T10:22:07;19.47;;;11.77;;
5730;SDS011;2890;51.950;7.668;2024-01-10T10:24:34;19.23;;;11.90;;
5730;SDS011;2890;51.950;7.668;2024-01-10T10:27:02;22.97;;;11.97;;
5730;SDS011;2890;51.950;7.668;2024-01-10T10:29:34;17.70;;;11.80;;
5730;SDS011;2890;51.950;7.668;2024-01-10T10:32:02;18.93;;;11.10;;
5730;SDS011;2890;51.950;7.668;2024-01-10T10:34:30;16.60;;;10.53;;
5730;SDS011;2890;51.950;7.668;2024-01-10T10:36:56;17.73;;;11.03;;
5730;SDS011;2890;51.950;7.668;2024-01-10T10:39:23;21.53;;;10.77;;
5730;SDS011;2890;51.950;7.668;2024-01-10T10:41:50;18.37;;;11.17;;
5730;SDS011;2890;51.950;7.668;2024-01-10T10:44:19;20.73;;;11.00;;
5730;SDS011;2890;51.950;7.668;2024-01-10T10:46:49;17.07;;;10.57;;
5730;SDS011;2890;51.950;7.668;2024-01-10T10:49:19;17.77;;;10.67;;
5730;SDS011;2890;51.950;7.668;2024-01-10T10:51:49;21.50;;;11.27;;
5730;SDS011;2890;51.950;7.668;2024-01-10T10:54:16;17.67;;;11.00;;
5730;SDS011;2890;51.950;7.668;2024-01-10T10:56:43;16.57;;;10.90;;
5730;SDS011;2890;51.950;7.668;2024-01-10T10:59:10;17.50;;;10.93;;
5730;SDS011;2890;51.950;7.668;2024-01-10T11:01:40;20.27;;;11.33;;
5730;SDS011;2890;51.950;7.668;2024-01-10T11:04:06;16.33;;;11.23;;
5730;SDS011;2890;51.950;7.668;2024-01-10T11:06:33;16.90;;;11.50;;
5730;SDS011;2890;51.950;7.668;2024-01-10T11:09:00;15.57;;;10.70;;
5730;SDS011;2890;51.950;7.668;2024-01-10T11:11:34;17.33;;;11.60;;
5730;SDS011;2890;51.950;7.668;2024-01-10T11:14:12;19.83;;;11.83;;
5730;SDS011;2890;51.950;7.668;2024-01-10T11:16:50;18.93;;;11.77;;
5730;SDS011;2890;51.950;7.668;2024-01-10T11:19:40;18.73;;;10.47;;
5730;SDS011;2890;51.950;7.668;2024-01-10T11:22:19;19.93;;;10.60;;
5730;SDS011;2890;51.950;7.668;2024-01-10T11:24:54;17.70;;;10.30;;
5730;SDS011;2890;51.950;7.668;2024-01-10T11:27:21;15.67;;;10.17;;
5730;SDS011;2890;51.950;7.668;2024-01-10T11:29:48;15.30;;;10.70;;
5730;SDS011;2890;51.950;7.668;2024-01-10T11:32:16;13.37;;;9.70;;
5730;SDS011;2890;51.950;7.668;2024-01-10T11:34:55;16.10;;;10.50;;
5730;SDS011;2890;51.950;7.668;2024-01-10T11:37:23;16.20;;;11.07;;
5730;SDS011;2890;51.950;7.668;2024-01-10T11:39:50;19.97;;;10.87;;
5730;SDS011;2890;51.950;7.668;2024-01-10T11:42:21;15.73;;;10.50;;
5730;SDS011;2890;51.950;7.668;2024-01-10T11:44:48;14.23;;;10.10;;
5730;SDS011;2890;51.950;7.668;2024-01-10T11:47:16;17.10;;;10.30;;
5730;SDS011;2890;51.950;7.668;2024-01-10T11:49:53;14.97;;;9.70;;
5730;SDS011;2890;51.950;7.668;2024-01-10T11:52:21;15.70;;;10.47;;
5730;SDS011;2890;51.950;7.668;2024-01-10T11:54:48;16.30;;;10.53;;
5730;SDS011;2890;51.950;7.668;2024-01-10T11:57:18;13.47;;;9.70;;
5730;SDS011;2890;51.950;7.668;2024-01-10T11:59:46;16.50;;;10.13;;
5730;SDS011;2890;51.950;7.668;2024-01-10T12:02:13;16.60;;;10.30;;
5730;SDS011;2890;51.950;7.668;2024-01-10T12:04:42;14.90;;;9.87;;
5730;SDS011;2890;51.950;7.668;2024-01-10T12:07:08;16.17;;;10.77;;
5730;SDS011;2890;51.950;7.668;2024-01-10T12:09:35;13.27;;;9.57;;
5730;SDS011;2890;51.950;7.668;2024-01-10T12:12:02;13.20;;;9.40;;
5730;SDS011;2890;51.950;7.668;2024-01-10T12:14:28;16.27;;;10.40;;
5730;SDS011;2890;51.950;7.668;2024-01-10T12:16:55;15.90;;;9.70;;
5730;SDS011;2890;51.950;7.668;2024-01-10T12:19:22;14.87;;;9.90;;
5730;SDS011;2890;51.950;7.668;2024-01-10T12:21:50;19.80;;;10.83;;
5730;SDS011;2890;51.950;7.668;2024-01-10T12:24:17;14.20;;;9.70;;
5730;SDS011;2890;51.950;7.668;2024-01-10T12:26:44;19.67;;;11.03;;
5730;SDS011;2890;51.950;7.668;2024-01-10T12:29:11;17.37;;;10.03;;
5730;SDS011;2890;51.950;7.668;2024-01-10T12:31:37;16.90;;;9.37;;
5730;SDS011;2890;51.950;7.668;2024-01-10T12:34:04;15.17;;;10.37;;
5730;SDS011;2890;51.950;7.668;2024-01-10T12:36:33;15.50;;;10.40;;
5730;SDS011;2890;51.950;7.668;2024-01-10T12:39:01;17.93;;;10.90;;
5730;SDS011;2890;51.950;7.668;2024-01-10T12:41:27;19.00;;;10.60;;
5730;SDS011;2890;51.950;7.668;2024-01-10T12:43:54;19.63;;;10.53;;
5730;SDS011;2890;51.950;7.668;2024-01-10T12:46:21;13.33;;;9.90;;
5730;SDS011;2890;51.950;7.668;2024-01-10T12:48:57;16.27;;;10.40;;
5730;SDS011;2890;51.950;7.668;2024-01-10T12:51:25;20.60;;;11.57;;
5730;SDS011;2890;51.950;7.668;2024-01-10T12:53:52;18.27;;;10.90;;
5730;SDS011;2890;51.950;7.668;2024-01-10T12:56:20;18.30;;;10.47;;
5730;SDS011;2890;51.950;7.668;2024-01-10T12:58:46;20.17;;;11.23;;
5730;SDS011;2890;51.950;7.668;2024-01-10T13:01:13;16.17;;;10.07;;
5730;SDS011;2890;51.950;7.668;2024-01-10T13:03:40;16.07;;;10.10;;
5730;SDS011;2890;51.950;7.668;2024-01-10T13:06:07;19.77;;;11.23;;
5730;SDS011;2890;51.950;7.668;2024-01-10T13:08:35;17.07;;;10.70;;
5730;SDS011;2890;51.950;7.668;2024-01-10T13:11:01;12.50;;;9.03;;
5730;SDS011;2890;51.950;7.668;2024-01-10T13:13:30;14.20;;;9.80;;
5730;SDS011;2890;51.950;7.668;2024-01-10T13:15:57;19.17;;;10.53;;
5730;SDS011;2890;51.950;7.668;2024-01-10T13:18:23;18.63;;;11.23;;
5730;SDS011;2890;51.950;7.668;2024-01-10T13:20:50;17.23;;;11.13;;
5730;SDS011;2890;51.950;7.668;2024-01-10T13:23:17;21.23;;;11.90;;
5730;SDS011;2890;51.950;7.668;2024-01-10T13:25:43;20.30;;;12.77;;
5730;SDS011;2890;51.950;7.668;2024-01-10T13:28:10;19.00;;;11.03;;
5730;SDS011;2890;51.950;7.668;2024-01-10T13:30:38;16.80;;;11.17;;
5730;SDS011;2890;51.950;7.668;2024-01-10T13:33:06;16.00;;;11.50;;
5730;SDS011;2890;51.950;7.668;2024-01-10T13:35:32;17.70;;;11.23;;
5730;SDS011;2890;51.950;7.668;2024-01-10T13:37:59;17.87;;;11.57;;
5730;SDS011;2890;51.950;7.668;2024-01-10T13:40:25;24.03;;;12.77;;
5730;SDS011;2890;51.950;7.668;2024-01-10T13:42:52;17.80;;;12.17;;
5730;SDS011;2890;51.950;7.668;2024-01-10T13:45:19;22.83;;;12.13;;
5730;SDS011;2890;51.950;7.668;2024-01-10T13:47:47;19.93;;;12.00;;
5730;SDS011;2890;51.950;7.668;2024-01-10T13:50:15;19.07;;;11.40;;
5730;SDS011;2890;51.950;7.668;2024-01-10T13:52:41;17.90;;;11.20;;
5730;SDS011;2890;51.950;7.668;2024-01-10T13:55:08;16.20;;;11.83;;
5730;SDS011;2890;51.950;7.668;2024-01-10T13:57:35;24.13;;;12.63;;
5730;SDS011;2890;51.950;7.668;2024-01-10T14:00:02;20.90;;;12.27;;
5730;SDS011;2890;51.950;7.668;2024-01-10T14:02:31;19.27;;;12.67;;
5730;SDS011;2890;51.950;7.668;2024-01-10T14:04:59;20.00;;;11.47;;
5730;SDS011;2890;51.950;7.668;2024-01-10T14:07:30;19.33;;;12.90;;
5730;SDS011;2890;51.950;7.668;2024-01-10T14:09:57;17.43;;;11.90;;
5730;SDS011;2890;51.950;7.668;2024-01-10T14:12:24;19.30;;;11.83;;
5730;SDS011;2890;51.950;7.668;2024-01-10T14:14:50;19.23;;;12.20;;
5730;SDS011;2890;51.950;7.668;2024-01-10T14:17:17;18.13;;;11.80;;
5730;SDS011;2890;51.950;7.668;2024-01-10T14:19:44;19.13;;;12.30;;
5730;SDS011;2890;51.950;7.668;2024-01-10T14:22:11;23.73;;;12.73;;
5730;SDS011;2890;51.950;7.668;2024-01-10T14:24:38;18.60;;;12.57;;
5730;SDS011;2890;51.950;7.668;2024-01-10T14:27:04;18.80;;;12.50;;
5730;SDS011;2890;51.950;7.668;2024-01-10T14:29:31;22.43;;;12.93;;
5730;SDS011;2890;51.950;7.668;2024-01-10T14:31:58;22.30;;;13.20;;
5730;SDS011;2890;51.950;7.668;2024-01-10T14:34:25;21.10;;;12.93;;
5730;SDS011;2890;51.950;7.668;2024-01-10T14:36:51;20.70;;;12.20;;
5730;SDS011;2890;51.950;7.668;2024-01-10T14:39:19;26.63;;;12.83;;
5730;SDS011;2890;51.950;7.668;2024-01-10T14:41:46;17.70;;;12.10;;
5730;SDS011;2890;51.950;7.668;2024-01-10T14:44:12;21.03;;;13.30;;
5730;SDS011;2890;51.950;7.668;2024-01-10T14:46:39;21.37;;;13.07;;
5730;SDS011;2890;51.950;7.668;2024-01-10T14:49:05;22.07;;;14.20;;
5730;SDS011;2890;51.950;7.668;2024-01-10T14:51:32;21.83;;;12.27;;
5730;SDS011;2890;51.950;7.668;2024-01-10T14:53:58;22.73;;;13.77;;
5730;SDS011;2890;51.950;7.668;2024-01-10T14:56:26;22.43;;;13.60;;
5730;SDS011;2890;51.950;7.668;2024-01-10T14:58:53;26.20;;;14.47;;
5730;SDS011;2890;51.950;7.668;2024-01-10T15:01:19;19.30;;;12.83;;